createdAt,value
2018-03-04T00:02:01.870Z,55.93
2018-03-04T00:04:30.704Z,55.07
2018-03-04T00:06:58.745Z,60.80
2018-03-04T00:09:27.139Z,52.57
2018-03-04T00:11:55.510Z,65.00
2018-03-04T00:14:23.202Z,60.17
2018-03-04T00:16:52.405Z,57.23
2018-03-04T00:19:20.253Z,59.43
2018-03-04T00:21:48.345Z,56.50
2018-03-04T00:24:16.084Z,57.43
2018-03-04T00:26:43.936Z,57.77
2018-03-04T00:29:11.644Z,58.30
2018-03-04T00:31:40.180Z,60.57
2018-03-04T00:34:07.946Z,64.30
2018-03-04T00:36:35.838Z,61.30
2018-03-04T00:39:03.686Z,65.67
2018-03-04T00:41:31.443Z,66.67
2018-03-04T00:43:59.534Z,69.60
2018-03-04T00:46:27.568Z,68.50
2018-03-04T00:48:55.493Z,74.33
2018-03-04T00:51:23.229Z,73.50
2018-03-04T00:53:50.994Z,70.63
2018-03-04T00:56:18.756Z,64.17
2018-03-04T00:58:47.123Z,66.40
2018-03-04T01:01:14.883Z,64.40
2018-03-04T01:03:42.760Z,62.37
2018-03-04T01:06:10.730Z,57.47
2018-03-04T01:08:39.248Z,56.70
2018-03-04T01:11:09.113Z,58.23
2018-03-04T01:13:37.203Z,60.20
2018-03-04T01:16:05.137Z,59.30
2018-03-04T01:18:32.846Z,58.73
2018-03-04T01:21:00.594Z,56.57
2018-03-04T01:23:28.697Z,58.67
2018-03-04T01:25:56.426Z,57.10
2018-03-04T01:28:24.596Z,62.30
2018-03-04T01:30:52.398Z,59.30
2018-03-04T01:33:20.850Z,56.20
2018-03-04T01:35:48.552Z,56.73
2018-03-04T01:38:17.796Z,63.37
2018-03-04T01:40:45.670Z,56.40
2018-03-04T01:43:13.615Z,58.57
2018-03-04T01:45:41.467Z,50.60
2018-03-04T01:48:09.170Z,55.97
2018-03-04T01:50:37.001Z,51.50
2018-03-04T01:53:04.906Z,50.67
2018-03-04T01:55:33.531Z,49.57
2018-03-04T01:58:02.066Z,50.00
2018-03-04T02:00:31.255Z,45.30
2018-03-04T02:02:59.030Z,48.30
2018-03-04T02:05:27.030Z,47.40
2018-03-04T02:07:54.774Z,46.13
2018-03-04T02:10:22.517Z,50.20
2018-03-04T02:12:50.206Z,46.17
2018-03-04T02:15:18.038Z,48.43
2018-03-04T02:17:45.801Z,47.63
2018-03-04T02:20:13.587Z,60.77
2018-03-04T02:22:41.343Z,54.67
2018-03-04T02:25:09.039Z,57.93
2018-03-04T02:27:36.759Z,54.93
2018-03-04T02:30:04.668Z,52.50
2018-03-04T02:32:32.369Z,53.17
2018-03-04T02:35:00.067Z,54.90
2018-03-04T02:37:28.023Z,58.57
2018-03-04T02:39:55.790Z,46.63
2018-03-04T02:42:23.646Z,38.93
2018-03-04T02:44:52.174Z,38.27
2018-03-04T02:47:21.121Z,38.30
2018-03-04T02:49:48.901Z,41.07
2018-03-04T02:52:16.778Z,42.30
2018-03-04T02:54:44.760Z,39.73
2018-03-04T02:57:12.591Z,39.47
2018-03-04T02:59:40.505Z,41.43
2018-03-04T03:02:09.062Z,39.80
2018-03-04T03:04:36.902Z,40.40
2018-03-04T03:07:04.778Z,39.43
2018-03-04T03:09:32.539Z,38.67
2018-03-04T03:12:00.257Z,37.87
2018-03-04T03:14:29.291Z,36.30
2018-03-04T03:16:58.024Z,36.67
2018-03-04T03:19:26.710Z,37.73
2018-03-04T03:21:55.182Z,38.53
2018-03-04T03:24:22.881Z,35.73
2018-03-04T03:26:51.635Z,37.90
2018-03-04T03:29:19.452Z,38.40
2018-03-04T03:31:47.192Z,36.77
2018-03-04T03:34:14.882Z,34.27
2018-03-04T03:36:42.788Z,35.27
2018-03-04T03:39:10.729Z,38.40
2018-03-04T03:41:38.524Z,34.10
2018-03-04T03:44:06.219Z,32.40
2018-03-04T03:46:34.006Z,32.00
2018-03-04T03:49:01.775Z,28.90
2018-03-04T03:51:29.558Z,27.83
2018-03-04T03:53:57.317Z,26.90
2018-03-04T03:56:25.098Z,27.87
2018-03-04T03:58:52.830Z,26.37
2018-03-04T04:01:20.507Z,29.07
2018-03-04T04:03:48.226Z,24.73
2018-03-04T04:06:16.658Z,31.17
2018-03-04T04:08:45.454Z,29.80
2018-03-04T04:11:13.150Z,30.57
2018-03-04T04:13:41.719Z,30.70
2018-03-04T04:16:10.355Z,34.93
2018-03-04T04:18:38.045Z,39.80
2018-03-04T04:21:05.997Z,36.70
2018-03-04T04:23:33.716Z,37.30
2018-03-04T04:26:01.764Z,38.13
2018-03-04T04:28:30.330Z,40.67
2018-03-04T04:30:58.090Z,40.80
2018-03-04T04:33:25.868Z,40.07
2018-03-04T04:35:54.335Z,41.33
2018-03-04T04:38:22.845Z,38.67
2018-03-04T04:40:51.347Z,43.83
2018-03-04T04:43:19.074Z,39.97
2018-03-04T04:45:46.775Z,42.60
2018-03-04T04:48:14.563Z,40.10
2018-03-04T04:50:42.344Z,40.10
2018-03-04T04:53:10.096Z,42.40
2018-03-04T04:55:38.070Z,39.97
2018-03-04T04:58:05.942Z,43.67
2018-03-04T05:00:34.149Z,45.63
2018-03-04T05:03:03.178Z,39.67
2018-03-04T05:05:30.961Z,39.70
2018-03-04T05:07:59.159Z,44.40
2018-03-04T05:10:28.522Z,43.83
2018-03-04T05:12:56.713Z,42.90
2018-03-04T05:15:24.776Z,32.00
2018-03-04T05:17:52.691Z,33.07
2018-03-04T05:20:21.965Z,35.33
2018-03-04T05:22:49.897Z,34.00
2018-03-04T05:25:18.209Z,33.13
2018-03-04T05:27:46.486Z,33.47
2018-03-04T05:30:14.537Z,30.53
2018-03-04T05:32:42.607Z,28.50
2018-03-04T05:35:12.413Z,30.50
2018-03-04T05:37:40.569Z,27.10
2018-03-04T05:40:08.836Z,24.40
2018-03-04T05:42:36.772Z,28.63
2018-03-04T05:45:04.714Z,25.40
2018-03-04T05:47:32.892Z,27.00
2018-03-04T05:50:00.868Z,32.50
2018-03-04T05:52:29.247Z,39.00
2018-03-04T05:54:57.190Z,45.10
2018-03-04T05:57:25.167Z,49.33
2018-03-04T05:59:53.257Z,61.27
2018-03-04T06:02:22.669Z,61.67
2018-03-04T06:04:50.732Z,56.27
2018-03-04T06:07:18.501Z,55.60
2018-03-04T06:09:46.360Z,57.10
2018-03-04T06:12:14.133Z,53.10
2018-03-04T06:14:42.095Z,50.20
2018-03-04T06:17:10.155Z,44.00
2018-03-04T06:19:38.087Z,37.87
2018-03-04T06:22:05.889Z,28.80
2018-03-04T06:24:33.673Z,24.80
2018-03-04T06:27:01.498Z,24.97
2018-03-04T06:29:30.393Z,25.30
2018-03-04T06:31:58.572Z,23.70
2018-03-04T06:34:26.796Z,23.93
2018-03-04T06:36:54.832Z,23.60
2018-03-04T06:39:22.746Z,24.00
2018-03-04T06:41:50.798Z,22.20
2018-03-04T06:44:19.780Z,22.33
2018-03-04T06:46:48.650Z,24.97
2018-03-04T06:49:16.514Z,24.50
2018-03-04T06:51:44.466Z,23.03
2018-03-04T06:54:12.332Z,23.10
2018-03-04T06:56:40.225Z,23.73
2018-03-04T06:59:09.087Z,22.00
2018-03-04T07:01:36.976Z,19.70
2018-03-04T07:04:04.843Z,12.60
2018-03-04T07:06:32.647Z,10.33
2018-03-04T07:09:00.790Z,9.50
2018-03-04T07:11:29.050Z,10.47
2018-03-04T07:13:57.109Z,10.00
2018-03-04T07:16:25.071Z,12.30
2018-03-04T07:18:54.905Z,14.23
2018-03-04T07:21:22.912Z,7.67
2018-03-04T07:23:51.646Z,10.30
2018-03-04T07:26:20.355Z,13.27
2018-03-04T07:28:48.443Z,14.97
2018-03-04T07:31:16.282Z,17.90
2018-03-04T07:33:44.441Z,19.17
2018-03-04T07:36:12.330Z,18.60
2018-03-04T07:38:41.101Z,18.87
2018-03-04T07:41:09.079Z,18.40
2018-03-04T07:43:37.680Z,16.80
2018-03-04T07:46:05.749Z,17.90
2018-03-04T07:48:33.711Z,17.90
2018-03-04T07:51:02.718Z,15.50
2018-03-04T07:53:31.373Z,16.00
2018-03-04T07:55:59.337Z,14.20
2018-03-04T07:58:27.269Z,10.97
2018-03-04T08:00:55.058Z,10.60
2018-03-04T08:03:26.147Z,12.23
2018-03-04T08:05:54.075Z,11.47
2018-03-04T08:08:21.928Z,10.10
2018-03-04T08:10:49.822Z,9.90
2018-03-04T08:13:17.820Z,9.77
2018-03-04T08:15:45.631Z,9.50
2018-03-04T08:18:14.639Z,9.53
2018-03-04T08:20:42.646Z,9.80
2018-03-04T08:23:10.685Z,8.83
2018-03-04T08:25:38.575Z,7.03
2018-03-04T08:28:18.421Z,4.43
2018-03-04T08:30:46.367Z,3.90
2018-03-04T08:33:14.249Z,3.87
2018-03-04T08:35:42.616Z,4.33
2018-03-04T08:38:10.578Z,4.00
2018-03-04T08:40:38.527Z,4.80
2018-03-04T08:43:06.637Z,4.47
2018-03-04T08:45:35.816Z,3.67
2018-03-04T08:48:03.665Z,3.23
2018-03-04T08:50:31.753Z,3.73
2018-03-04T08:52:59.866Z,3.40
2018-03-04T08:55:28.206Z,3.87
2018-03-04T08:57:56.141Z,3.40
2018-03-04T09:00:24.148Z,2.70
2018-03-04T09:02:52.111Z,2.43
2018-03-04T09:05:20.003Z,3.00
2018-03-04T09:07:47.928Z,2.63
2018-03-04T09:10:16.019Z,3.27
2018-03-04T09:12:43.908Z,6.37
2018-03-04T09:15:11.776Z,3.43
2018-03-04T09:17:39.819Z,2.60
2018-03-04T09:20:07.793Z,2.10
2018-03-04T09:22:36.173Z,2.53
2018-03-04T09:25:04.167Z,1.97
2018-03-04T09:27:32.942Z,2.70
2018-03-04T09:30:00.842Z,2.80
2018-03-04T09:32:29.500Z,2.07
2018-03-04T09:34:57.756Z,2.80
2018-03-04T09:37:26.058Z,2.93
2018-03-04T09:39:54.108Z,3.27
2018-03-04T09:42:21.971Z,5.07
2018-03-04T09:44:49.836Z,4.20
2018-03-04T09:47:17.809Z,6.50
2018-03-04T09:49:45.776Z,8.07
2018-03-04T09:52:13.876Z,10.07
2018-03-04T09:54:42.266Z,4.63
2018-03-04T09:57:11.218Z,3.40
2018-03-04T09:59:39.213Z,4.90
2018-03-04T10:02:08.081Z,3.87
2018-03-04T10:04:36.150Z,3.40
2018-03-04T10:07:04.140Z,2.60
2018-03-04T10:09:32.189Z,3.43
2018-03-04T10:12:00.262Z,3.20
2018-03-04T10:14:28.251Z,2.90
2018-03-04T10:16:56.414Z,3.00
2018-03-04T10:19:24.285Z,3.27
2018-03-04T10:21:52.190Z,3.07
2018-03-04T10:24:21.234Z,4.80
2018-03-04T10:26:49.225Z,4.53
2018-03-04T10:29:18.717Z,3.60
2018-03-04T10:31:46.678Z,4.33
2018-03-04T10:34:15.284Z,4.53
2018-03-04T10:36:44.581Z,4.20
2018-03-04T10:39:12.812Z,4.00
2018-03-04T10:41:40.625Z,3.67
2018-03-04T10:44:10.169Z,3.83
2018-03-04T10:46:38.913Z,4.40
2018-03-04T10:49:06.788Z,3.97
2018-03-04T10:51:34.982Z,3.80
2018-03-04T10:54:04.675Z,4.63
2018-03-04T10:56:32.557Z,4.83
2018-03-04T10:59:01.118Z,3.60
2018-03-04T11:01:35.122Z,3.50
2018-03-04T11:04:03.283Z,3.63
2018-03-04T11:06:31.839Z,3.90
2018-03-04T11:08:59.650Z,3.73
2018-03-04T11:11:28.137Z,3.10
2018-03-04T11:13:56.904Z,2.83
2018-03-04T11:16:24.883Z,3.37
2018-03-04T11:18:53.550Z,5.97
2018-03-04T11:21:21.552Z,13.23
2018-03-04T11:23:49.496Z,12.17
2018-03-04T11:26:17.587Z,8.70
2018-03-04T11:28:45.557Z,8.30
2018-03-04T11:31:14.254Z,6.90
2018-03-04T11:33:43.000Z,6.80
2018-03-04T11:36:10.879Z,9.50
2018-03-04T11:38:38.791Z,7.27
2018-03-04T11:41:07.553Z,6.73
2018-03-04T11:43:36.659Z,7.10
2018-03-04T11:46:05.819Z,7.90
2018-03-04T11:48:34.354Z,5.73
2018-03-04T11:51:03.039Z,6.73
2018-03-04T11:53:31.704Z,6.80
2018-03-04T11:55:59.706Z,6.70
2018-03-04T11:58:27.758Z,5.83
2018-03-04T12:00:56.428Z,7.50
2018-03-04T12:03:24.392Z,6.27
2018-03-04T12:05:52.335Z,5.53
2018-03-04T12:08:20.305Z,6.33
2018-03-04T12:10:48.178Z,5.30
2018-03-04T12:13:16.058Z,6.30
2018-03-04T12:15:43.934Z,5.03
2018-03-04T12:18:11.889Z,4.63
2018-03-04T12:20:40.252Z,2.87
2018-03-04T12:23:08.157Z,2.20
2018-03-04T12:25:36.088Z,3.37
2018-03-04T12:28:04.195Z,3.97
2018-03-04T12:30:32.473Z,2.80
2018-03-04T12:33:00.511Z,3.47
2018-03-04T12:35:28.520Z,3.47
2018-03-04T12:37:57.289Z,3.23
2018-03-04T12:40:25.348Z,3.27
2018-03-04T12:42:53.305Z,2.73
2018-03-04T12:45:21.386Z,2.73
2018-03-04T12:47:50.377Z,3.40
2018-03-04T12:50:18.339Z,4.17
2018-03-04T12:52:46.530Z,4.20
2018-03-04T12:55:14.709Z,3.13
2018-03-04T12:57:42.666Z,3.70
2018-03-04T13:00:10.829Z,3.30
2018-03-04T13:02:38.632Z,3.40
2018-03-04T13:05:06.774Z,3.30
2018-03-04T13:07:35.145Z,4.40
2018-03-04T13:10:03.207Z,3.43
2018-03-04T13:12:31.221Z,23.00
2018-03-04T13:15:01.613Z,21.07
2018-03-04T13:17:29.805Z,19.30
2018-03-04T13:19:57.899Z,20.73
2018-03-04T13:22:27.684Z,19.00
2018-03-04T13:24:55.739Z,15.83
2018-03-04T13:27:23.676Z,19.27
2018-03-04T13:29:51.680Z,17.33
2018-03-04T13:32:19.779Z,18.00
2018-03-04T13:34:47.718Z,17.00
2018-03-04T13:37:15.610Z,18.70
2018-03-04T13:39:43.807Z,17.27
2018-03-04T13:42:12.733Z,17.07
2018-03-04T13:44:40.722Z,21.00
2018-03-04T13:47:08.643Z,20.53
2018-03-04T13:49:37.428Z,18.60
2018-03-04T13:52:06.216Z,19.70
2018-03-04T13:54:34.900Z,18.43
2018-03-04T13:57:04.685Z,19.50
2018-03-04T13:59:33.385Z,18.60
2018-03-04T14:02:01.825Z,20.20
2018-03-04T14:04:29.840Z,17.57
2018-03-04T14:06:59.028Z,19.87
2018-03-04T14:09:28.833Z,17.77
2018-03-04T14:11:57.839Z,20.47
2018-03-04T14:14:26.178Z,17.13
2018-03-04T14:16:54.315Z,17.23
2018-03-04T14:19:22.749Z,17.47
2018-03-04T14:21:51.563Z,18.87
2018-03-04T14:24:20.316Z,20.30
2018-03-04T14:26:49.128Z,20.90
2018-03-04T14:29:20.039Z,21.60
2018-03-04T14:31:48.549Z,20.77
2018-03-04T14:34:20.183Z,18.70
2018-03-04T14:36:49.436Z,19.37
2018-03-04T14:39:18.424Z,19.87
2018-03-04T14:41:47.445Z,18.60
2018-03-04T14:44:15.607Z,16.93
2018-03-04T14:46:44.043Z,17.90
2018-03-04T14:49:12.187Z,21.27
2018-03-04T14:51:41.257Z,16.97
2018-03-04T14:54:10.963Z,15.43
2018-03-04T14:56:39.636Z,12.00
2018-03-04T14:59:07.512Z,17.33
2018-03-04T15:01:35.690Z,15.77
2018-03-04T15:04:03.974Z,15.70
2018-03-04T15:06:32.250Z,16.87
2018-03-04T15:09:01.673Z,14.33
2018-03-04T15:11:30.625Z,14.83
2018-03-04T15:13:59.406Z,13.93
2018-03-04T15:16:27.685Z,13.53
2018-03-04T15:18:55.962Z,14.67
2018-03-04T15:21:26.081Z,13.00
2018-03-04T15:23:55.351Z,12.40
2018-03-04T15:26:24.293Z,12.50
2018-03-04T15:28:53.677Z,12.43
2018-03-04T15:31:23.222Z,12.60
2018-03-04T15:33:52.787Z,13.37
2018-03-04T15:36:22.227Z,12.90
2018-03-04T15:38:50.665Z,10.93
2018-03-04T15:41:19.556Z,12.20
2018-03-04T15:43:48.484Z,12.50
2018-03-04T15:46:17.247Z,11.23
2018-03-04T15:48:45.775Z,11.23
2018-03-04T15:51:14.303Z,12.53
2018-03-04T15:53:43.030Z,11.10
2018-03-04T15:56:12.592Z,13.00
2018-03-04T15:58:41.083Z,12.50
2018-03-04T16:01:09.351Z,11.77
2018-03-04T16:03:38.031Z,12.03
2018-03-04T16:06:06.370Z,14.60
2018-03-04T16:08:35.983Z,13.90
2018-03-04T16:11:04.096Z,11.43
2018-03-04T16:13:32.866Z,10.50
2018-03-04T16:16:01.881Z,12.13
2018-03-04T16:18:30.598Z,11.07
2018-03-04T16:21:00.118Z,10.30
2018-03-04T16:23:28.676Z,10.13
2018-03-04T16:25:57.232Z,8.93
2018-03-04T16:28:25.306Z,12.33
2018-03-04T16:30:53.469Z,9.93
2018-03-04T16:33:24.051Z,10.20
2018-03-04T16:35:54.312Z,9.20
2018-03-04T16:38:23.383Z,10.40
2018-03-04T16:40:51.698Z,12.00
2018-03-04T16:43:20.192Z,9.60
2018-03-04T16:45:48.408Z,13.63
2018-03-04T16:48:16.648Z,10.60
2018-03-04T16:50:45.700Z,12.90
2018-03-04T16:53:13.900Z,11.40
2018-03-04T16:55:42.129Z,10.43
2018-03-04T16:58:10.867Z,11.43
2018-03-04T17:00:40.062Z,12.57
2018-03-04T17:03:08.747Z,14.00
2018-03-04T17:05:37.762Z,11.87
2018-03-04T17:08:06.798Z,13.83
2018-03-04T17:10:34.903Z,16.33
2018-03-04T17:13:03.468Z,14.10
2018-03-04T17:15:31.672Z,12.67
2018-03-04T17:18:00.006Z,12.70
2018-03-04T17:20:28.316Z,14.33
2018-03-04T17:22:56.653Z,19.40
2018-03-04T17:25:24.660Z,20.10
2018-03-04T17:27:53.291Z,11.63
2018-03-04T17:30:22.274Z,41.73
2018-03-04T17:32:52.072Z,12.47
2018-03-04T17:35:21.410Z,12.53
2018-03-04T17:37:50.141Z,17.43
2018-03-04T17:40:19.389Z,22.33
2018-03-04T17:42:48.645Z,17.73
2018-03-04T17:45:18.735Z,16.23
2018-03-04T17:47:48.714Z,22.97
2018-03-04T17:50:18.755Z,25.80
2018-03-04T17:52:48.034Z,21.20
2018-03-04T17:55:17.491Z,30.70
2018-03-04T17:57:47.215Z,18.13
2018-03-04T18:00:17.394Z,78.83
2018-03-04T18:02:46.333Z,29.87
2018-03-04T18:05:15.825Z,8.50
2018-03-04T18:07:45.734Z,7.40
2018-03-04T18:10:14.216Z,4.90
2018-03-04T18:12:43.539Z,5.50
2018-03-04T18:15:12.697Z,7.27
2018-03-04T18:17:42.026Z,3.40
2018-03-04T18:20:12.527Z,3.87
2018-03-04T18:22:42.671Z,4.53
2018-03-04T18:25:12.896Z,3.80
2018-03-04T18:27:42.214Z,4.70
2018-03-04T18:30:12.114Z,4.70
2018-03-04T18:32:41.391Z,4.30
2018-03-04T18:35:11.288Z,3.30
2018-03-04T18:37:40.683Z,2.73
2018-03-04T18:40:10.859Z,3.23
2018-03-04T18:42:40.396Z,3.60
2018-03-04T18:45:09.162Z,3.33
2018-03-04T18:47:38.774Z,3.23
2018-03-04T18:50:08.327Z,3.40
2018-03-04T18:52:37.920Z,3.03
2018-03-04T18:55:06.893Z,2.97
2018-03-04T18:57:35.629Z,3.47
2018-03-04T19:00:04.873Z,3.30
2018-03-04T19:02:34.210Z,2.40
2018-03-04T19:05:03.064Z,2.20
2018-03-04T19:07:32.687Z,3.10
2018-03-04T19:10:02.037Z,2.40
2018-03-04T19:12:31.075Z,2.50
2018-03-04T19:14:59.471Z,3.73
2018-03-04T19:17:27.666Z,2.90
2018-03-04T19:19:56.661Z,3.60
2018-03-04T19:22:25.223Z,3.37
2018-03-04T19:24:53.663Z,3.40
2018-03-04T19:27:22.803Z,3.57
2018-03-04T19:29:51.201Z,3.17
2018-03-04T19:32:19.444Z,3.10
2018-03-04T19:34:47.780Z,3.07
2018-03-04T19:37:16.368Z,3.43
2018-03-04T19:39:45.590Z,3.83
2018-03-04T19:42:14.218Z,4.47
2018-03-04T19:44:42.964Z,3.77
2018-03-04T19:47:11.361Z,3.63
2018-03-04T19:49:39.927Z,5.20
2018-03-04T19:52:10.293Z,3.93
2018-03-04T19:54:38.780Z,4.20
2018-03-04T19:57:07.050Z,3.77
2018-03-04T19:59:35.433Z,3.43
2018-03-04T20:02:04.369Z,3.40
2018-03-04T20:04:33.326Z,9.50
2018-03-04T20:07:01.693Z,7.30
2018-03-04T20:09:30.116Z,6.50
2018-03-04T20:12:00.410Z,8.87
2018-03-04T20:14:28.984Z,6.70
2018-03-04T20:16:57.355Z,12.63
2018-03-04T20:19:26.226Z,13.87
2018-03-04T20:21:54.793Z,10.10
2018-03-04T20:24:24.349Z,8.93
2018-03-04T20:26:53.836Z,13.53
2018-03-04T20:29:22.931Z,13.03
2018-03-04T20:31:51.393Z,15.30
2018-03-04T20:34:19.559Z,18.00
2018-03-04T20:36:48.788Z,18.80
2018-03-04T20:39:16.955Z,19.57
2018-03-04T20:41:46.665Z,22.23
2018-03-04T20:44:15.468Z,22.40
2018-03-04T20:46:43.815Z,21.60
2018-03-04T20:49:12.384Z,19.83
2018-03-04T20:51:41.518Z,22.07
2018-03-04T20:54:09.683Z,22.00
2018-03-04T20:56:37.964Z,19.57
2018-03-04T20:59:06.512Z,20.93
2018-03-04T21:01:34.924Z,20.50
2018-03-04T21:04:04.536Z,19.50
2018-03-04T21:06:32.702Z,19.77
2018-03-04T21:09:00.979Z,21.57
2018-03-04T21:11:29.212Z,21.77
2018-03-04T21:13:57.944Z,20.57
2018-03-04T21:16:27.000Z,18.67
2018-03-04T21:18:55.476Z,21.33
2018-03-04T21:21:23.895Z,20.30
2018-03-04T21:23:52.395Z,20.17
2018-03-04T21:26:21.459Z,21.80
2018-03-04T21:28:50.220Z,22.97
2018-03-04T21:31:18.643Z,22.17
2018-03-04T21:33:46.917Z,20.63
2018-03-04T21:36:15.428Z,22.90
2018-03-04T21:38:43.628Z,23.40
2018-03-04T21:41:12.860Z,24.17
2018-03-04T21:43:41.766Z,22.90
2018-03-04T21:46:10.851Z,23.20
2018-03-04T21:48:39.128Z,21.00
2018-03-04T21:51:07.103Z,21.27
2018-03-04T21:53:35.344Z,23.13
2018-03-04T21:56:03.753Z,21.33
2018-03-04T21:58:32.173Z,22.60
2018-03-04T22:01:00.313Z,22.33
2018-03-04T22:03:28.374Z,22.93
2018-03-04T22:05:56.836Z,23.03
2018-03-04T22:08:25.369Z,22.27
2018-03-04T22:10:53.617Z,21.10
2018-03-04T22:13:21.953Z,22.00
2018-03-04T22:15:50.113Z,21.00
2018-03-04T22:18:19.215Z,20.90
2018-03-04T22:20:48.154Z,19.20
2018-03-04T22:23:16.225Z,20.37
2018-03-04T22:25:44.562Z,19.17
2018-03-04T22:28:12.874Z,18.40
2018-03-04T22:30:40.818Z,18.97
2018-03-04T22:33:09.732Z,21.43
2018-03-04T22:35:38.453Z,18.10
2018-03-04T22:38:06.490Z,18.53
2018-03-04T22:40:34.563Z,18.17
2018-03-04T22:43:02.638Z,20.07
2018-03-04T22:45:32.034Z,18.23
2018-03-04T22:48:05.653Z,18.90
2018-03-04T22:50:35.601Z,18.80
2018-03-04T22:53:03.723Z,17.00
2018-03-04T22:55:31.795Z,16.43
2018-03-04T22:57:59.904Z,17.60
2018-03-04T23:00:28.040Z,17.03
2018-03-04T23:02:56.826Z,16.80
2018-03-04T23:05:25.102Z,16.20
2018-03-04T23:07:53.688Z,17.80
2018-03-04T23:10:22.070Z,17.60
2018-03-04T23:12:50.034Z,16.67
2018-03-04T23:15:18.210Z,16.20
2018-03-04T23:17:46.414Z,16.10
2018-03-04T23:20:14.760Z,15.03
2018-03-04T23:22:42.787Z,14.30
2018-03-04T23:25:10.937Z,13.73
2018-03-04T23:27:39.893Z,13.53
2018-03-04T23:30:07.910Z,15.13
2018-03-04T23:32:37.220Z,14.27
2018-03-04T23:35:05.782Z,13.87
2018-03-04T23:37:35.563Z,15.00
2018-03-04T23:40:03.634Z,15.10
2018-03-04T23:42:31.705Z,14.10
2018-03-04T23:44:59.914Z,16.47
2018-03-04T23:47:29.792Z,16.03
2018-03-04T23:49:58.782Z,15.50
2018-03-04T23:52:26.699Z,16.07
2018-03-04T23:54:55.030Z,16.20
2018-03-04T23:57:23.817Z,17.00
2018-03-04T23:59:52.506Z,16.07
